createdAt,value
2018-04-24T00:01:11.581Z,23.10
2018-04-24T00:03:45.852Z,23.10
2018-04-24T00:06:20.200Z,23.20
2018-04-24T00:08:54.519Z,23.20
2018-04-24T00:11:28.941Z,23.20
2018-04-24T00:14:03.480Z,23.20
2018-04-24T00:16:37.996Z,23.20
2018-04-24T00:19:13.008Z,23.20
2018-04-24T00:21:47.556Z,23.20
2018-04-24T00:24:22.668Z,23.10
2018-04-24T00:26:57.323Z,23.00
2018-04-24T00:29:31.618Z,22.80
2018-04-24T00:32:06.884Z,22.80
2018-04-24T00:34:41.264Z,22.80
2018-04-24T00:37:15.604Z,23.00
2018-04-24T00:39:50.233Z,23.00
2018-04-24T00:42:24.769Z,23.00
2018-04-24T00:44:59.160Z,22.90
2018-04-24T00:47:33.608Z,23.00
2018-04-24T00:50:07.909Z,23.00
2018-04-24T00:52:42.347Z,22.80
2018-04-24T00:55:16.980Z,22.80
2018-04-24T00:57:51.277Z,22.90
2018-04-24T01:00:27.351Z,23.00
2018-04-24T01:03:01.776Z,23.00
2018-04-24T01:05:36.148Z,22.90
2018-04-24T01:08:11.423Z,22.70
2018-04-24T01:10:46.061Z,22.70
2018-04-24T01:13:21.296Z,22.80
2018-04-24T01:15:56.512Z,22.70
2018-04-24T01:18:31.660Z,22.80
2018-04-24T01:21:05.908Z,22.80
2018-04-24T01:23:40.288Z,22.70
2018-04-24T01:26:14.841Z,22.90
2018-04-24T01:28:49.856Z,22.50
2018-04-24T01:31:24.396Z,22.50
2018-04-24T01:33:58.916Z,22.70
2018-04-24T01:36:33.436Z,22.70
2018-04-24T01:39:07.862Z,22.70
2018-04-24T01:41:42.231Z,22.70
2018-04-24T01:44:16.804Z,22.80
2018-04-24T01:46:51.328Z,22.60
2018-04-24T01:49:25.660Z,22.80
2018-04-24T01:51:59.952Z,22.70
2018-04-24T01:54:35.089Z,22.50
2018-04-24T01:57:10.104Z,22.60
2018-04-24T01:59:44.556Z,22.60
2018-04-24T02:02:19.080Z,22.70
2018-04-24T02:04:53.509Z,22.80
2018-04-24T02:07:27.933Z,22.80
2018-04-24T02:10:02.244Z,22.80
2018-04-24T02:12:37.363Z,22.90
2018-04-24T02:15:11.776Z,22.80
2018-04-24T02:17:46.429Z,22.80
2018-04-24T02:20:20.953Z,22.80
2018-04-24T02:22:55.252Z,22.80
2018-04-24T02:25:30.508Z,22.70
2018-04-24T02:28:04.925Z,22.70
2018-04-24T02:30:39.452Z,22.70
2018-04-24T02:33:13.854Z,22.80
2018-04-24T02:35:48.175Z,22.80
2018-04-24T02:38:23.337Z,22.50
2018-04-24T02:40:58.451Z,22.60
2018-04-24T02:43:32.896Z,22.50
2018-04-24T02:46:07.312Z,22.60
2018-04-24T02:48:41.710Z,22.60
2018-04-24T02:51:16.082Z,22.50
2018-04-24T02:53:51.287Z,22.50
2018-04-24T02:56:25.808Z,22.50
2018-04-24T02:59:00.088Z,22.50
2018-04-24T03:01:34.442Z,22.40
2018-04-24T03:04:08.868Z,22.40
2018-04-24T03:06:43.281Z,22.50
2018-04-24T03:09:17.680Z,22.40
2018-04-24T03:11:52.088Z,22.00
2018-04-24T03:14:26.624Z,22.10
2018-04-24T03:17:00.967Z,22.00
2018-04-24T03:19:35.444Z,22.10
2018-04-24T03:22:09.724Z,22.00
2018-04-24T03:24:44.213Z,22.10
2018-04-24T03:27:18.754Z,22.30
2018-04-24T03:29:53.276Z,22.30
2018-04-24T03:32:27.770Z,22.00
2018-04-24T03:35:02.092Z,22.30
2018-04-24T03:37:36.646Z,22.40
2018-04-24T03:40:11.776Z,22.10
2018-04-24T03:42:46.300Z,22.10
2018-04-24T03:45:20.552Z,21.90
2018-04-24T03:47:55.040Z,22.20
2018-04-24T03:50:29.667Z,22.10
2018-04-24T03:53:04.089Z,22.20
2018-04-24T03:55:39.108Z,22.10
2018-04-24T03:58:13.664Z,22.10
2018-04-24T04:00:47.961Z,22.30
2018-04-24T04:03:22.380Z,22.30
2018-04-24T04:05:57.601Z,22.10
2018-04-24T04:08:32.759Z,22.40
2018-04-24T04:11:07.052Z,22.40
2018-04-24T04:13:41.460Z,22.50
2018-04-24T04:16:16.137Z,22.50
2018-04-24T04:19:02.120Z,22.50
2018-04-24T04:21:49.152Z,22.50
2018-04-24T04:24:33.333Z,22.40
2018-04-24T04:27:07.704Z,22.40
2018-04-24T04:29:42.020Z,22.40
2018-04-24T04:32:16.322Z,22.30
2018-04-24T04:34:51.690Z,22.40
2018-04-24T04:37:25.924Z,22.40
2018-04-24T04:40:01.245Z,22.40
2018-04-24T04:42:35.672Z,22.30
2018-04-24T04:45:10.189Z,22.30
2018-04-24T04:47:44.501Z,22.10
2018-04-24T04:50:18.796Z,22.10
2018-04-24T04:52:53.435Z,22.10
2018-04-24T04:55:28.160Z,22.30
2018-04-24T04:58:02.625Z,22.40
2018-04-24T05:00:37.024Z,22.10
2018-04-24T05:03:11.412Z,22.20
2018-04-24T05:05:46.629Z,22.20
2018-04-24T05:08:21.200Z,22.20
2018-04-24T05:10:55.725Z,22.00
2018-04-24T05:13:30.248Z,22.10
2018-04-24T05:16:04.681Z,22.10
2018-04-24T05:18:39.052Z,22.30
2018-04-24T05:21:13.432Z,22.20
2018-04-24T05:23:48.008Z,22.30
2018-04-24T05:26:22.548Z,22.20
2018-04-24T05:28:56.952Z,22.30
2018-04-24T05:31:31.492Z,22.40
2018-04-24T05:34:05.816Z,22.40
2018-04-24T05:36:40.332Z,22.40
2018-04-24T05:39:14.756Z,22.30
2018-04-24T05:41:49.288Z,22.40
2018-04-24T05:44:23.732Z,22.30
2018-04-24T05:46:58.446Z,22.40
2018-04-24T05:49:32.684Z,22.50
2018-04-24T05:52:07.049Z,22.10
2018-04-24T05:54:41.372Z,22.20
2018-04-24T05:57:15.676Z,22.40
2018-04-24T05:59:50.228Z,22.50
2018-04-24T06:02:24.859Z,22.50
2018-04-24T06:04:59.360Z,19.40
2018-04-24T06:07:34.498Z,16.10
2018-04-24T06:10:09.042Z,16.00
2018-04-24T06:12:43.581Z,15.40
2018-04-24T06:15:18.068Z,14.60
2018-04-24T06:17:52.505Z,14.60
2018-04-24T06:20:27.740Z,14.20
2018-04-24T06:23:02.069Z,14.20
2018-04-24T06:25:36.468Z,14.20
2018-04-24T06:28:10.900Z,13.70
2018-04-24T06:30:45.912Z,13.50
2018-04-24T06:33:20.468Z,13.40
2018-04-24T06:35:54.807Z,13.40
2018-04-24T06:38:29.300Z,13.30
2018-04-24T06:41:03.930Z,13.60
2018-04-24T06:43:38.460Z,13.00
2018-04-24T06:46:12.769Z,13.60
2018-04-24T06:48:47.192Z,13.90
2018-04-24T06:51:21.656Z,13.50
2018-04-24T06:53:56.132Z,13.40
2018-04-24T06:56:31.157Z,14.10
2018-04-24T06:59:05.548Z,14.00
2018-04-24T07:01:40.113Z,14.30
2018-04-24T07:04:14.756Z,14.10
2018-04-24T07:06:49.264Z,14.70
2018-04-24T07:09:23.688Z,14.90
2018-04-24T07:11:58.216Z,14.50
2018-04-24T07:14:32.618Z,14.00
2018-04-24T07:17:07.148Z,13.90
2018-04-24T07:19:42.160Z,13.60
2018-04-24T07:22:16.721Z,13.50
2018-04-24T07:24:51.612Z,13.40
2018-04-24T07:27:25.961Z,14.10
2018-04-24T07:30:00.226Z,13.90
2018-04-24T07:32:34.509Z,13.80
2018-04-24T07:35:08.822Z,14.10
2018-04-24T07:37:44.057Z,14.70
2018-04-24T07:40:18.355Z,14.60
2018-04-24T07:42:52.794Z,14.10
2018-04-24T07:45:27.315Z,13.90
2018-04-24T07:48:01.821Z,13.50
2018-04-24T07:50:36.468Z,13.60
2018-04-24T07:53:10.960Z,14.10
2018-04-24T07:55:46.228Z,14.50
2018-04-24T07:58:20.648Z,14.50
2018-04-24T08:00:55.068Z,15.10
2018-04-24T08:03:29.324Z,14.50
2018-04-24T08:06:03.581Z,14.70
2018-04-24T08:08:37.913Z,15.20
2018-04-24T08:11:12.218Z,14.20
2018-04-24T08:13:47.375Z,14.60
2018-04-24T08:16:21.891Z,14.60
2018-04-24T08:18:56.909Z,15.00
2018-04-24T08:21:31.344Z,15.00
2018-04-24T08:24:06.469Z,14.70
2018-04-24T08:26:40.812Z,14.60
2018-04-24T08:29:15.836Z,14.50
2018-04-24T08:31:50.368Z,14.50
2018-04-24T08:34:24.779Z,14.90
2018-04-24T08:36:59.217Z,14.60
2018-04-24T08:39:33.531Z,14.60
2018-04-24T08:42:08.053Z,14.70
2018-04-24T08:44:42.579Z,14.50
2018-04-24T08:47:16.880Z,14.70
2018-04-24T08:49:51.184Z,14.40
2018-04-24T08:52:25.768Z,14.20
2018-04-24T08:55:00.141Z,14.40
2018-04-24T08:57:35.365Z,14.70
2018-04-24T09:00:09.625Z,14.60
2018-04-24T09:02:44.140Z,14.40
2018-04-24T09:05:18.529Z,14.50
2018-04-24T09:07:52.955Z,14.20
2018-04-24T09:10:27.605Z,14.70
2018-04-24T09:13:02.110Z,14.80
2018-04-24T09:15:36.448Z,14.60
2018-04-24T09:18:11.549Z,14.80
2018-04-24T09:20:45.996Z,14.80
2018-04-24T09:23:20.300Z,14.50
2018-04-24T09:25:55.557Z,14.90
2018-04-24T09:28:30.589Z,14.90
2018-04-24T09:31:05.608Z,15.20
2018-04-24T09:33:40.060Z,15.20
2018-04-24T09:36:14.544Z,15.10
2018-04-24T09:38:49.107Z,15.20
2018-04-24T09:41:23.384Z,15.00
2018-04-24T09:43:58.016Z,15.40
2018-04-24T09:46:32.355Z,15.40
2018-04-24T09:49:06.864Z,15.30
2018-04-24T09:51:42.002Z,15.20
2018-04-24T09:54:16.276Z,15.20
2018-04-24T09:56:50.791Z,15.30
2018-04-24T09:59:25.181Z,15.30
2018-04-24T10:01:59.601Z,15.30
2018-04-24T10:04:34.607Z,14.90
2018-04-24T10:07:09.037Z,14.80
2018-04-24T10:09:43.320Z,15.00
2018-04-24T10:12:17.895Z,14.90
2018-04-24T10:14:53.108Z,15.50
2018-04-24T10:17:27.452Z,15.40
2018-04-24T10:20:01.880Z,15.70
2018-04-24T10:22:36.180Z,15.30
2018-04-24T10:25:10.484Z,15.40
2018-04-24T10:27:45.500Z,15.40
2018-04-24T10:30:19.820Z,15.30
2018-04-24T10:32:54.371Z,15.10
2018-04-24T10:35:28.817Z,15.40
2018-04-24T10:38:03.819Z,15.60
2018-04-24T10:40:38.957Z,15.80
2018-04-24T10:43:13.505Z,15.80
2018-04-24T10:45:47.926Z,15.70
2018-04-24T10:48:22.353Z,16.00
2018-04-24T10:50:56.604Z,16.00
2018-04-24T10:53:30.957Z,15.90
2018-04-24T10:56:05.705Z,15.70
2018-04-24T10:58:40.156Z,15.30
2018-04-24T11:01:15.235Z,15.40
2018-04-24T11:03:50.598Z,15.30
2018-04-24T11:06:25.079Z,15.50
2018-04-24T11:09:00.292Z,16.10
2018-04-24T11:11:34.895Z,16.10
2018-04-24T11:14:09.380Z,16.30
2018-04-24T11:16:44.054Z,16.30
2018-04-24T11:19:19.296Z,16.20
2018-04-24T11:21:53.832Z,16.10
2018-04-24T11:24:28.145Z,16.30
2018-04-24T11:27:02.760Z,16.70
2018-04-24T11:29:37.999Z,16.30
2018-04-24T11:32:12.416Z,16.30
2018-04-24T11:34:46.752Z,15.90
2018-04-24T11:37:21.249Z,15.80
2018-04-24T11:39:55.677Z,16.10
2018-04-24T11:42:30.176Z,16.30
2018-04-24T11:45:04.768Z,16.50
2018-04-24T11:47:39.093Z,16.50
2018-04-24T11:50:13.412Z,16.70
2018-04-24T11:52:47.751Z,17.30
2018-04-24T11:55:22.391Z,17.60
2018-04-24T11:57:56.922Z,16.70
2018-04-24T12:00:31.655Z,17.00
2018-04-24T12:03:06.072Z,17.10
2018-04-24T12:05:40.604Z,16.80
2018-04-24T12:08:15.213Z,16.60
2018-04-24T12:10:49.633Z,16.50
2018-04-24T12:13:24.053Z,16.50
2018-04-24T12:15:59.293Z,16.80
2018-04-24T12:18:34.433Z,16.50
2018-04-24T12:21:08.817Z,16.40
2018-04-24T12:23:43.285Z,16.80
2018-04-24T12:26:17.592Z,16.70
2018-04-24T12:28:51.913Z,17.10
2018-04-24T12:31:26.557Z,17.20
2018-04-24T12:34:01.085Z,17.20
2018-04-24T12:36:35.348Z,16.90
2018-04-24T12:39:10.040Z,16.90
2018-04-24T12:41:44.372Z,16.40
2018-04-24T12:44:18.761Z,16.80
2018-04-24T12:46:53.165Z,17.10
2018-04-24T12:49:27.583Z,17.70
2018-04-24T12:52:02.016Z,17.30
2018-04-24T12:54:36.417Z,17.20
2018-04-24T12:57:10.937Z,17.30
2018-04-24T12:59:45.364Z,17.50
2018-04-24T13:02:19.826Z,17.50
2018-04-24T13:04:54.324Z,17.10
2018-04-24T13:07:29.337Z,16.90
2018-04-24T13:10:04.560Z,16.80
2018-04-24T13:12:38.892Z,16.70
2018-04-24T13:15:13.327Z,16.80
2018-04-24T13:17:47.977Z,17.00
2018-04-24T13:20:22.489Z,17.10
2018-04-24T13:22:57.120Z,16.90
2018-04-24T13:25:31.602Z,16.90
2018-04-24T13:28:06.024Z,16.70
2018-04-24T13:30:40.489Z,16.60
2018-04-24T13:33:14.804Z,16.40
2018-04-24T13:35:49.205Z,16.50
2018-04-24T13:38:23.760Z,16.60
2018-04-24T13:40:58.775Z,16.60
2018-04-24T13:43:33.172Z,16.60
2018-04-24T13:46:08.448Z,16.50
2018-04-24T13:48:42.932Z,16.50
2018-04-24T13:51:17.592Z,16.50
2018-04-24T13:53:52.012Z,16.60
2018-04-24T13:56:27.234Z,16.70
2018-04-24T13:59:02.237Z,16.10
2018-04-24T14:01:36.916Z,16.10
2018-04-24T14:04:11.313Z,16.20
2018-04-24T14:06:45.728Z,16.30
2018-04-24T14:09:20.072Z,16.10
2018-04-24T14:11:55.296Z,16.20
2018-04-24T14:14:29.919Z,16.00
2018-04-24T14:17:04.161Z,16.30
2018-04-24T14:19:38.488Z,16.40
2018-04-24T14:22:12.792Z,16.40
2018-04-24T14:24:47.308Z,16.40
2018-04-24T14:27:21.735Z,16.40
2018-04-24T14:29:56.024Z,16.20
2018-04-24T14:32:30.341Z,16.40
2018-04-24T14:35:04.896Z,16.50
2018-04-24T14:37:39.264Z,16.40
2018-04-24T14:40:13.736Z,16.50
2018-04-24T14:42:48.202Z,16.60
2018-04-24T14:45:22.550Z,16.70
2018-04-24T14:47:57.096Z,16.70
2018-04-24T14:50:32.121Z,17.00
2018-04-24T14:53:06.656Z,17.00
2018-04-24T14:55:42.604Z,16.80
2018-04-24T14:58:17.025Z,16.80
2018-04-24T15:00:51.540Z,16.80
2018-04-24T15:03:25.928Z,16.80
2018-04-24T15:06:00.499Z,16.80
2018-04-24T15:08:34.925Z,16.90
2018-04-24T15:11:09.456Z,16.80
2018-04-24T15:13:43.736Z,16.70
2018-04-24T15:16:18.184Z,16.90
2018-04-24T15:18:53.316Z,16.90
2018-04-24T15:21:27.761Z,16.90
2018-04-24T15:24:02.372Z,17.30
2018-04-24T15:26:36.632Z,17.10
2018-04-24T15:29:11.109Z,17.20
2018-04-24T15:31:45.638Z,17.10
2018-04-24T15:34:20.256Z,17.10
2018-04-24T15:36:54.781Z,17.00
2018-04-24T15:39:29.032Z,16.80
2018-04-24T15:42:03.353Z,16.80
2018-04-24T15:44:37.728Z,17.00
2018-04-24T15:47:12.924Z,17.10
2018-04-24T15:49:47.404Z,17.00
2018-04-24T15:52:21.799Z,16.90
2018-04-24T15:54:56.159Z,16.70
2018-04-24T15:57:30.644Z,16.80
2018-04-24T16:00:05.207Z,17.00
2018-04-24T16:02:39.796Z,16.90
2018-04-24T16:05:14.807Z,17.10
2018-04-24T16:07:49.140Z,17.10
2018-04-24T16:10:24.168Z,17.30
2018-04-24T16:12:58.513Z,17.30
2018-04-24T16:15:33.836Z,17.10
2018-04-24T16:18:08.272Z,17.10
2018-04-24T16:20:42.589Z,17.00
2018-04-24T16:23:16.845Z,16.90
2018-04-24T16:25:51.340Z,16.90
2018-04-24T16:28:25.712Z,17.00
2018-04-24T16:31:00.276Z,16.90
2018-04-24T16:33:34.702Z,16.80
2018-04-24T16:36:09.627Z,16.80
2018-04-24T16:38:44.825Z,16.90
2018-04-24T16:41:19.400Z,16.80
2018-04-24T16:43:53.790Z,16.80
2018-04-24T16:46:28.849Z,16.30
2018-04-24T16:49:03.477Z,16.30
2018-04-24T16:51:37.894Z,16.50
2018-04-24T16:54:12.316Z,16.30
2018-04-24T16:56:46.832Z,16.50
2018-04-24T16:59:21.204Z,16.50
2018-04-24T17:01:55.466Z,16.60
2018-04-24T17:04:29.792Z,16.10
2018-04-24T17:07:04.917Z,16.00
2018-04-24T17:09:39.337Z,16.00
2018-04-24T17:12:13.683Z,15.90
2018-04-24T17:14:48.247Z,16.00
2018-04-24T17:17:22.608Z,16.10
2018-04-24T17:19:56.971Z,16.20
2018-04-24T17:22:31.290Z,16.10
2018-04-24T17:25:05.569Z,16.20
2018-04-24T17:27:39.969Z,16.30
2018-04-24T17:30:14.453Z,16.10
2018-04-24T17:32:48.701Z,16.10
2018-04-24T17:35:23.360Z,16.40
2018-04-24T17:37:58.084Z,16.60
2018-04-24T17:40:32.340Z,16.40
2018-04-24T17:43:06.816Z,16.30
2018-04-24T17:45:42.121Z,16.20
2018-04-24T17:48:16.567Z,16.20
2018-04-24T17:50:50.989Z,16.10
2018-04-24T17:53:25.484Z,15.90
2018-04-24T17:55:59.892Z,16.00
2018-04-24T17:58:34.523Z,15.90
2018-04-24T18:01:08.996Z,16.00
2018-04-24T18:03:43.627Z,15.90
2018-04-24T18:06:17.931Z,15.80
2018-04-24T18:08:52.465Z,15.60
2018-04-24T18:11:27.214Z,15.70
2018-04-24T18:14:01.816Z,15.50
2018-04-24T18:16:36.964Z,15.40
2018-04-24T18:19:12.068Z,15.40
2018-04-24T18:21:46.464Z,15.30
2018-04-24T18:24:20.927Z,15.60
2018-04-24T18:26:55.353Z,15.40
2018-04-24T18:29:29.849Z,15.30
2018-04-24T18:32:04.400Z,15.30
2018-04-24T18:34:38.983Z,15.40
2018-04-24T18:37:13.448Z,15.30
2018-04-24T18:39:47.892Z,15.40
2018-04-24T18:42:22.192Z,15.40
2018-04-24T18:44:57.402Z,15.10
2018-04-24T18:47:31.954Z,15.00
2018-04-24T18:50:06.339Z,15.10
2018-04-24T18:52:40.780Z,15.10
2018-04-24T18:55:15.120Z,15.20
2018-04-24T18:57:49.529Z,15.20
2018-04-24T19:00:23.916Z,15.20
2018-04-24T19:02:58.304Z,15.20
2018-04-24T19:05:32.796Z,16.60
2018-04-24T19:08:07.312Z,18.00
2018-04-24T19:10:41.796Z,18.80
2018-04-24T19:13:17.249Z,19.60
2018-04-24T19:15:52.185Z,19.80
2018-04-24T19:18:32.305Z,19.80
2018-04-24T19:21:07.477Z,20.20
2018-04-24T19:23:42.116Z,20.10
2018-04-24T19:26:16.337Z,20.30
2018-04-24T19:28:51.492Z,20.40
2018-04-24T19:31:32.694Z,20.40
2018-04-24T19:34:07.056Z,20.50
2018-04-24T19:36:41.709Z,20.60
2018-04-24T19:39:21.629Z,20.60
2018-04-24T19:41:56.678Z,20.80
2018-04-24T19:44:30.972Z,20.70
2018-04-24T19:47:05.339Z,20.80
2018-04-24T19:49:45.413Z,20.80
2018-04-24T19:52:19.880Z,20.90
2018-04-24T19:55:00.000Z,21.00
2018-04-24T19:57:35.186Z,21.20
2018-04-24T20:00:09.616Z,21.10
2018-04-24T20:02:43.956Z,21.10
2018-04-24T20:05:18.241Z,21.10
2018-04-24T20:07:53.510Z,21.20
2018-04-24T20:10:27.997Z,21.10
2018-04-24T20:13:02.445Z,21.20
2018-04-24T20:15:36.861Z,21.10
2018-04-24T20:18:11.251Z,20.60
2018-04-24T20:20:46.432Z,20.70
2018-04-24T20:23:20.863Z,20.60
2018-04-24T20:25:55.269Z,20.70
2018-04-24T20:28:29.678Z,20.60
2018-04-24T20:31:03.960Z,20.70
2018-04-24T20:33:39.993Z,21.00
2018-04-24T20:36:14.576Z,20.90
2018-04-24T20:38:49.082Z,21.10
2018-04-24T20:41:23.505Z,21.10
2018-04-24T20:43:58.556Z,21.10
2018-04-24T20:46:32.840Z,21.10
2018-04-24T20:49:08.117Z,21.20
2018-04-24T20:51:42.372Z,21.10
2018-04-24T20:54:16.795Z,21.20
2018-04-24T20:56:51.380Z,20.90
2018-04-24T20:59:25.984Z,21.10
2018-04-24T21:02:00.298Z,21.20
2018-04-24T21:04:35.552Z,21.30
2018-04-24T21:07:10.191Z,21.20
2018-04-24T21:09:44.488Z,21.30
2018-04-24T21:12:19.617Z,21.30
2018-04-24T21:14:54.149Z,21.20
2018-04-24T21:17:28.688Z,20.90
2018-04-24T21:20:02.936Z,21.00
2018-04-24T21:22:37.529Z,21.10
2018-04-24T21:25:11.948Z,21.30
2018-04-24T21:27:46.965Z,21.40
2018-04-24T21:30:21.397Z,21.40
2018-04-24T21:32:55.784Z,21.40
2018-04-24T21:35:30.133Z,21.40
2018-04-24T21:38:04.572Z,21.50
2018-04-24T21:40:38.867Z,21.40
2018-04-24T21:43:13.304Z,21.50
2018-04-24T21:45:47.817Z,21.40
2018-04-24T21:48:22.455Z,21.30
2018-04-24T21:50:56.980Z,21.40
2018-04-24T21:53:31.269Z,21.40
2018-04-24T21:56:05.924Z,21.40
2018-04-24T21:58:40.344Z,21.50
2018-04-24T22:01:15.361Z,21.40
2018-04-24T22:03:49.904Z,21.40
2018-04-24T22:06:24.295Z,21.20
2018-04-24T22:08:58.640Z,21.10
2018-04-24T22:11:33.068Z,21.20
2018-04-24T22:14:10.324Z,21.20
2018-04-24T22:16:44.764Z,21.30
2018-04-24T22:19:19.309Z,21.30
2018-04-24T22:21:53.619Z,21.40
2018-04-24T22:24:28.132Z,21.40
2018-04-24T22:27:02.528Z,21.20
2018-04-24T22:29:37.076Z,21.00
2018-04-24T22:32:11.400Z,20.90
2018-04-24T22:34:45.797Z,20.90
2018-04-24T22:37:20.240Z,20.90
2018-04-24T22:39:54.657Z,21.00
2018-04-24T22:42:28.954Z,20.70
2018-04-24T22:45:03.400Z,20.60
2018-04-24T22:47:38.021Z,20.30
2018-04-24T22:50:12.432Z,20.80
2018-04-24T22:52:46.971Z,20.90
2018-04-24T22:55:21.989Z,20.80
2018-04-24T22:57:56.992Z,20.80
2018-04-24T23:00:31.342Z,21.10
2018-04-24T23:03:06.472Z,21.10
2018-04-24T23:05:41.674Z,21.10
2018-04-24T23:08:16.356Z,21.30
2018-04-24T23:11:02.656Z,21.30
2018-04-24T23:13:55.205Z,21.30
2018-04-24T23:16:47.852Z,21.30
2018-04-24T23:19:40.358Z,21.30
2018-04-24T23:22:29.688Z,21.20
2018-04-24T23:25:04.189Z,21.20
2018-04-24T23:27:38.815Z,21.10
2018-04-24T23:30:13.245Z,20.90
2018-04-24T23:32:48.254Z,20.90
2018-04-24T23:35:23.704Z,20.80
2018-04-24T23:37:59.676Z,20.50
2018-04-24T23:40:34.297Z,20.50
2018-04-24T23:43:09.332Z,20.70
2018-04-24T23:45:44.680Z,20.70
2018-04-24T23:48:19.304Z,21.10
2018-04-24T23:50:53.780Z,20.90
2018-04-24T23:53:28.345Z,21.20
2018-04-24T23:56:02.667Z,21.00
2018-04-24T23:58:37.292Z,21.00
